MVD weather

Carrasco International /General C L Berisso Airport
Montevideo, Canelones Department, Uruguay

Public forecast

Using degrees Celsius for public forecast. Weather courtesy of forecast.io.

Current aviation weather report (METAR) for Carrasco International /General C L Berisso Airport

Retrieved 2019/12/10 01:00 UTC (46 minutes ago):

SUMU 100100Z 03003KT CAVOK 24/14 Q1009 NOSIG

Aviation forecast (TAF) for Carrasco International /General C L Berisso Airport

Retrieved 2019-12-10 00:09 UTC (2 hours ago):

TAF SUMU 092330Z 1000/1024 06010KT 9999 FEW033 TX36/1018Z TN20/1009Z BECMG 1003/1005 36015KT BECMG 1016/1018 30015KT